sensor_id;sensor_type;location;lat;lon;timestamp;P1;durP1;ratioP1;P2;durP2;ratioP2
22711;SDS011;11523;50.390;8.072;2023-05-07T00:01:56;2.13;;;1.75;;
22711;SDS011;11523;50.390;8.072;2023-05-07T00:04:22;3.60;;;1.80;;
22711;SDS011;11523;50.390;8.072;2023-05-07T00:06:48;4.93;;;2.25;;
22711;SDS011;11523;50.390;8.072;2023-05-07T00:09:14;4.60;;;2.20;;
22711;SDS011;11523;50.390;8.072;2023-05-07T00:11:41;2.40;;;1.90;;
22711;SDS011;11523;50.390;8.072;2023-05-07T00:14:07;4.07;;;2.17;;
22711;SDS011;11523;50.390;8.072;2023-05-07T00:16:33;2.58;;;1.70;;
22711;SDS011;11523;50.390;8.072;2023-05-07T00:18:59;4.10;;;2.10;;
22711;SDS011;11523;50.390;8.072;2023-05-07T00:21:25;3.25;;;2.10;;
22711;SDS011;11523;50.390;8.072;2023-05-07T00:23:52;2.75;;;2.10;;
22711;SDS011;11523;50.390;8.072;2023-05-07T00:26:18;3.83;;;2.10;;
22711;SDS011;11523;50.390;8.072;2023-05-07T00:28:44;2.20;;;1.80;;
22711;SDS011;11523;50.390;8.072;2023-05-07T00:31:10;2.83;;;1.67;;
22711;SDS011;11523;50.390;8.072;2023-05-07T00:33:36;3.83;;;1.83;;
22711;SDS011;11523;50.390;8.072;2023-05-07T00:36:02;3.15;;;1.70;;
22711;SDS011;11523;50.390;8.072;2023-05-07T00:38:28;1.85;;;1.67;;
22711;SDS011;11523;50.390;8.072;2023-05-07T00:40:54;2.17;;;1.80;;
22711;SDS011;11523;50.390;8.072;2023-05-07T00:43:20;3.85;;;2.05;;
22711;SDS011;11523;50.390;8.072;2023-05-07T00:45:46;1.98;;;1.77;;
22711;SDS011;11523;50.390;8.072;2023-05-07T00:48:18;2.17;;;1.98;;
22711;SDS011;11523;50.390;8.072;2023-05-07T00:50:44;3.03;;;1.70;;
22711;SDS011;11523;50.390;8.072;2023-05-07T00:53:10;2.70;;;1.80;;
22711;SDS011;11523;50.390;8.072;2023-05-07T00:55:36;4.03;;;1.80;;
22711;SDS011;11523;50.390;8.072;2023-05-07T00:58:03;4.05;;;1.90;;
22711;SDS011;11523;50.390;8.072;2023-05-07T01:00:29;3.30;;;2.10;;
22711;SDS011;11523;50.390;8.072;2023-05-07T01:02:54;4.85;;;2.25;;
22711;SDS011;11523;50.390;8.072;2023-05-07T01:05:21;3.17;;;2.03;;
22711;SDS011;11523;50.390;8.072;2023-05-07T01:07:48;3.42;;;1.80;;
22711;SDS011;11523;50.390;8.072;2023-05-07T01:10:15;4.05;;;1.80;;
22711;SDS011;11523;50.390;8.072;2023-05-07T01:12:41;4.78;;;2.58;;
22711;SDS011;11523;50.390;8.072;2023-05-07T01:15:08;2.60;;;2.00;;
22711;SDS011;11523;50.390;8.072;2023-05-07T01:17:35;2.58;;;2.30;;
22711;SDS011;11523;50.390;8.072;2023-05-07T01:20:01;4.25;;;2.50;;
22711;SDS011;11523;50.390;8.072;2023-05-07T01:22:34;3.03;;;2.00;;
22711;SDS011;11523;50.390;8.072;2023-05-07T01:25:01;2.13;;;1.90;;
22711;SDS011;11523;50.390;8.072;2023-05-07T01:27:27;3.17;;;2.22;;
22711;SDS011;11523;50.390;8.072;2023-05-07T01:29:53;4.93;;;2.20;;
22711;SDS011;11523;50.390;8.072;2023-05-07T01:32:21;3.40;;;1.98;;
22711;SDS011;11523;50.390;8.072;2023-05-07T01:34:49;2.28;;;2.08;;
22711;SDS011;11523;50.390;8.072;2023-05-07T01:37:16;5.75;;;2.50;;
22711;SDS011;11523;50.390;8.072;2023-05-07T01:39:42;2.50;;;1.90;;
22711;SDS011;11523;50.390;8.072;2023-05-07T01:42:08;2.45;;;2.03;;
22711;SDS011;11523;50.390;8.072;2023-05-07T01:44:34;4.43;;;2.17;;
22711;SDS011;11523;50.390;8.072;2023-05-07T01:47:01;2.70;;;1.77;;
22711;SDS011;11523;50.390;8.072;2023-05-07T01:49:27;2.78;;;2.40;;
22711;SDS011;11523;50.390;8.072;2023-05-07T01:51:53;3.67;;;2.15;;
22711;SDS011;11523;50.390;8.072;2023-05-07T01:54:20;4.10;;;2.15;;
22711;SDS011;11523;50.390;8.072;2023-05-07T01:56:50;3.33;;;2.40;;
22711;SDS011;11523;50.390;8.072;2023-05-07T01:59:16;2.20;;;2.00;;
22711;SDS011;11523;50.390;8.072;2023-05-07T02:01:42;4.07;;;2.20;;
22711;SDS011;11523;50.390;8.072;2023-05-07T02:04:08;2.10;;;1.98;;
22711;SDS011;11523;50.390;8.072;2023-05-07T02:06:34;3.40;;;2.15;;
22711;SDS011;11523;50.390;8.072;2023-05-07T02:09:00;3.60;;;1.98;;
22711;SDS011;11523;50.390;8.072;2023-05-07T02:11:26;3.33;;;2.33;;
22711;SDS011;11523;50.390;8.072;2023-05-07T02:13:52;3.22;;;2.20;;
22711;SDS011;11523;50.390;8.072;2023-05-07T02:16:18;2.88;;;2.22;;
22711;SDS011;11523;50.390;8.072;2023-05-07T02:18:44;2.80;;;2.30;;
22711;SDS011;11523;50.390;8.072;2023-05-07T02:21:10;2.80;;;2.03;;
22711;SDS011;11523;50.390;8.072;2023-05-07T02:23:36;2.50;;;2.00;;
22711;SDS011;11523;50.390;8.072;2023-05-07T02:26:03;2.40;;;2.08;;
22711;SDS011;11523;50.390;8.072;2023-05-07T02:28:29;2.75;;;2.03;;
22711;SDS011;11523;50.390;8.072;2023-05-07T02:30:55;3.10;;;2.28;;
22711;SDS011;11523;50.390;8.072;2023-05-07T02:33:23;4.72;;;2.00;;
22711;SDS011;11523;50.390;8.072;2023-05-07T02:35:49;2.35;;;2.03;;
22711;SDS011;11523;50.390;8.072;2023-05-07T02:38:16;3.25;;;2.38;;
22711;SDS011;11523;50.390;8.072;2023-05-07T02:40:42;4.20;;;2.67;;
22711;SDS011;11523;50.390;8.072;2023-05-07T02:43:08;3.00;;;2.70;;
22711;SDS011;11523;50.390;8.072;2023-05-07T02:45:34;3.72;;;2.63;;
22711;SDS011;11523;50.390;8.072;2023-05-07T02:48:02;6.00;;;2.70;;
22711;SDS011;11523;50.390;8.072;2023-05-07T02:50:28;4.18;;;2.30;;
22711;SDS011;11523;50.390;8.072;2023-05-07T02:52:54;2.75;;;2.45;;
22711;SDS011;11523;50.390;8.072;2023-05-07T02:55:20;4.47;;;2.72;;
22711;SDS011;11523;50.390;8.072;2023-05-07T02:57:46;3.25;;;2.65;;
22711;SDS011;11523;50.390;8.072;2023-05-07T03:00:13;3.70;;;2.30;;
22711;SDS011;11523;50.390;8.072;2023-05-07T03:02:39;2.88;;;2.58;;
22711;SDS011;11523;50.390;8.072;2023-05-07T03:05:05;4.20;;;2.90;;
22711;SDS011;11523;50.390;8.072;2023-05-07T03:07:31;2.65;;;2.38;;
22711;SDS011;11523;50.390;8.072;2023-05-07T03:09:57;4.13;;;2.65;;
22711;SDS011;11523;50.390;8.072;2023-05-07T03:12:23;4.70;;;2.72;;
22711;SDS011;11523;50.390;8.072;2023-05-07T03:14:49;6.90;;;2.85;;
22711;SDS011;11523;50.390;8.072;2023-05-07T03:17:15;3.83;;;2.80;;
22711;SDS011;11523;50.390;8.072;2023-05-07T03:19:41;2.90;;;2.30;;
22711;SDS011;11523;50.390;8.072;2023-05-07T03:22:07;2.97;;;2.67;;
22711;SDS011;11523;50.390;8.072;2023-05-07T03:24:33;4.80;;;2.63;;
22711;SDS011;11523;50.390;8.072;2023-05-07T03:26:59;4.03;;;2.70;;
22711;SDS011;11523;50.390;8.072;2023-05-07T03:29:26;7.38;;;2.50;;
22711;SDS011;11523;50.390;8.072;2023-05-07T03:31:52;3.40;;;2.33;;
22711;SDS011;11523;50.390;8.072;2023-05-07T03:34:18;4.22;;;2.60;;
22711;SDS011;11523;50.390;8.072;2023-05-07T03:36:47;2.80;;;2.58;;
22711;SDS011;11523;50.390;8.072;2023-05-07T03:39:13;4.35;;;2.42;;
22711;SDS011;11523;50.390;8.072;2023-05-07T03:41:39;3.83;;;2.53;;
22711;SDS011;11523;50.390;8.072;2023-05-07T03:44:05;3.83;;;2.75;;
22711;SDS011;11523;50.390;8.072;2023-05-07T03:46:31;4.75;;;2.50;;
22711;SDS011;11523;50.390;8.072;2023-05-07T03:48:57;5.82;;;2.72;;
22711;SDS011;11523;50.390;8.072;2023-05-07T03:51:23;5.50;;;2.45;;
22711;SDS011;11523;50.390;8.072;2023-05-07T03:53:50;3.03;;;2.25;;
22711;SDS011;11523;50.390;8.072;2023-05-07T03:56:18;5.60;;;2.63;;
22711;SDS011;11523;50.390;8.072;2023-05-07T03:58:44;3.30;;;2.95;;
22711;SDS011;11523;50.390;8.072;2023-05-07T04:01:10;3.90;;;2.80;;
22711;SDS011;11523;50.390;8.072;2023-05-07T04:03:36;5.57;;;2.92;;
22711;SDS011;11523;50.390;8.072;2023-05-07T04:06:02;2.88;;;2.60;;
22711;SDS011;11523;50.390;8.072;2023-05-07T04:08:28;5.28;;;2.80;;
22711;SDS011;11523;50.390;8.072;2023-05-07T04:10:57;4.43;;;2.60;;
22711;SDS011;11523;50.390;8.072;2023-05-07T04:13:24;5.30;;;2.92;;
22711;SDS011;11523;50.390;8.072;2023-05-07T04:15:50;3.10;;;2.80;;
22711;SDS011;11523;50.390;8.072;2023-05-07T04:18:16;3.50;;;3.20;;
22711;SDS011;11523;50.390;8.072;2023-05-07T04:20:42;4.75;;;2.78;;
22711;SDS011;11523;50.390;8.072;2023-05-07T04:23:08;3.95;;;3.05;;
22711;SDS011;11523;50.390;8.072;2023-05-07T04:25:34;3.45;;;2.63;;
22711;SDS011;11523;50.390;8.072;2023-05-07T04:28:00;3.85;;;3.00;;
22711;SDS011;11523;50.390;8.072;2023-05-07T04:30:26;3.10;;;2.80;;
22711;SDS011;11523;50.390;8.072;2023-05-07T04:32:52;3.33;;;2.80;;
22711;SDS011;11523;50.390;8.072;2023-05-07T04:35:18;3.50;;;3.03;;
22711;SDS011;11523;50.390;8.072;2023-05-07T04:37:44;4.03;;;3.20;;
22711;SDS011;11523;50.390;8.072;2023-05-07T04:40:18;3.20;;;2.90;;
22711;SDS011;11523;50.390;8.072;2023-05-07T04:42:44;4.85;;;3.38;;
22711;SDS011;11523;50.390;8.072;2023-05-07T04:45:10;5.75;;;3.45;;
22711;SDS011;11523;50.390;8.072;2023-05-07T04:47:37;3.95;;;3.30;;
22711;SDS011;11523;50.390;8.072;2023-05-07T04:50:16;4.45;;;3.38;;
22711;SDS011;11523;50.390;8.072;2023-05-07T04:52:44;4.00;;;3.08;;
22711;SDS011;11523;50.390;8.072;2023-05-07T04:55:10;4.25;;;3.20;;
22711;SDS011;11523;50.390;8.072;2023-05-07T04:57:36;3.05;;;2.75;;
22711;SDS011;11523;50.390;8.072;2023-05-07T05:00:04;3.63;;;3.20;;
22711;SDS011;11523;50.390;8.072;2023-05-07T05:02:33;4.20;;;3.25;;
22711;SDS011;11523;50.390;8.072;2023-05-07T05:04:59;3.47;;;3.17;;
22711;SDS011;11523;50.390;8.072;2023-05-07T05:07:26;3.38;;;3.03;;
22711;SDS011;11523;50.390;8.072;2023-05-07T05:09:52;4.25;;;2.80;;
22711;SDS011;11523;50.390;8.072;2023-05-07T05:12:18;3.40;;;2.92;;
22711;SDS011;11523;50.390;8.072;2023-05-07T05:14:44;3.17;;;2.85;;
22711;SDS011;11523;50.390;8.072;2023-05-07T05:17:10;5.43;;;3.78;;
22711;SDS011;11523;50.390;8.072;2023-05-07T05:19:36;3.95;;;3.00;;
22711;SDS011;11523;50.390;8.072;2023-05-07T05:22:02;4.88;;;3.13;;
22711;SDS011;11523;50.390;8.072;2023-05-07T05:24:28;3.90;;;3.15;;
22711;SDS011;11523;50.390;8.072;2023-05-07T05:26:54;3.95;;;3.33;;
22711;SDS011;11523;50.390;8.072;2023-05-07T05:29:21;3.50;;;3.00;;
22711;SDS011;11523;50.390;8.072;2023-05-07T05:31:47;6.65;;;3.15;;
22711;SDS011;11523;50.390;8.072;2023-05-07T05:34:13;3.47;;;3.10;;
22711;SDS011;11523;50.390;8.072;2023-05-07T05:36:39;5.25;;;3.65;;
22711;SDS011;11523;50.390;8.072;2023-05-07T05:39:05;3.58;;;3.22;;
22711;SDS011;11523;50.390;8.072;2023-05-07T05:41:31;3.20;;;2.90;;
22711;SDS011;11523;50.390;8.072;2023-05-07T05:43:57;3.60;;;3.25;;
22711;SDS011;11523;50.390;8.072;2023-05-07T05:46:23;3.13;;;2.83;;
22711;SDS011;11523;50.390;8.072;2023-05-07T05:48:49;3.75;;;3.30;;
22711;SDS011;11523;50.390;8.072;2023-05-07T05:51:15;4.20;;;3.15;;
22711;SDS011;11523;50.390;8.072;2023-05-07T05:53:41;4.15;;;3.03;;
22711;SDS011;11523;50.390;8.072;2023-05-07T05:56:07;3.33;;;2.88;;
22711;SDS011;11523;50.390;8.072;2023-05-07T05:58:32;4.53;;;3.00;;
22711;SDS011;11523;50.390;8.072;2023-05-07T06:00:58;4.57;;;3.13;;
22711;SDS011;11523;50.390;8.072;2023-05-07T06:03:24;4.22;;;3.08;;
22711;SDS011;11523;50.390;8.072;2023-05-07T06:05:51;4.85;;;3.83;;
22711;SDS011;11523;50.390;8.072;2023-05-07T06:08:16;4.15;;;3.75;;
22711;SDS011;11523;50.390;8.072;2023-05-07T06:10:43;7.93;;;3.80;;
22711;SDS011;11523;50.390;8.072;2023-05-07T06:13:09;4.15;;;3.75;;
22711;SDS011;11523;50.390;8.072;2023-05-07T06:15:35;4.70;;;3.80;;
22711;SDS011;11523;50.390;8.072;2023-05-07T06:18:01;6.10;;;4.10;;
22711;SDS011;11523;50.390;8.072;2023-05-07T06:20:27;4.78;;;4.20;;
22711;SDS011;11523;50.390;8.072;2023-05-07T06:22:53;4.38;;;3.97;;
22711;SDS011;11523;50.390;8.072;2023-05-07T06:25:19;5.43;;;3.83;;
22711;SDS011;11523;50.390;8.072;2023-05-07T06:27:45;6.80;;;3.90;;
22711;SDS011;11523;50.390;8.072;2023-05-07T06:30:11;4.95;;;4.28;;
22711;SDS011;11523;50.390;8.072;2023-05-07T06:32:37;4.95;;;4.45;;
22711;SDS011;11523;50.390;8.072;2023-05-07T06:35:03;5.30;;;4.20;;
22711;SDS011;11523;50.390;8.072;2023-05-07T06:37:29;6.13;;;4.03;;
22711;SDS011;11523;50.390;8.072;2023-05-07T06:39:55;5.38;;;4.38;;
22711;SDS011;11523;50.390;8.072;2023-05-07T06:42:21;6.55;;;4.80;;
22711;SDS011;11523;50.390;8.072;2023-05-07T06:44:47;6.65;;;4.78;;
22711;SDS011;11523;50.390;8.072;2023-05-07T06:47:12;6.63;;;4.68;;
22711;SDS011;11523;50.390;8.072;2023-05-07T06:49:38;6.10;;;4.45;;
22711;SDS011;11523;50.390;8.072;2023-05-07T06:52:04;4.80;;;4.40;;
22711;SDS011;11523;50.390;8.072;2023-05-07T06:54:30;5.35;;;4.18;;
22711;SDS011;11523;50.390;8.072;2023-05-07T06:56:56;4.97;;;4.50;;
22711;SDS011;11523;50.390;8.072;2023-05-07T06:59:23;5.50;;;4.60;;
22711;SDS011;11523;50.390;8.072;2023-05-07T07:01:49;4.82;;;4.32;;
22711;SDS011;11523;50.390;8.072;2023-05-07T07:04:15;7.07;;;4.82;;
22711;SDS011;11523;50.390;8.072;2023-05-07T07:06:41;6.07;;;4.40;;
22711;SDS011;11523;50.390;8.072;2023-05-07T07:09:07;5.20;;;4.70;;
22711;SDS011;11523;50.390;8.072;2023-05-07T07:11:33;10.13;;;5.32;;
22711;SDS011;11523;50.390;8.072;2023-05-07T07:13:58;7.22;;;5.38;;
22711;SDS011;11523;50.390;8.072;2023-05-07T07:16:24;7.07;;;5.00;;
22711;SDS011;11523;50.390;8.072;2023-05-07T07:18:51;7.82;;;5.05;;
22711;SDS011;11523;50.390;8.072;2023-05-07T07:21:17;7.15;;;5.10;;
22711;SDS011;11523;50.390;8.072;2023-05-07T07:23:42;7.22;;;5.03;;
22711;SDS011;11523;50.390;8.072;2023-05-07T07:26:08;7.18;;;5.65;;
22711;SDS011;11523;50.390;8.072;2023-05-07T07:28:35;5.03;;;4.53;;
22711;SDS011;11523;50.390;8.072;2023-05-07T07:31:00;10.48;;;5.57;;
22711;SDS011;11523;50.390;8.072;2023-05-07T07:33:26;7.45;;;5.00;;
22711;SDS011;11523;50.390;8.072;2023-05-07T07:35:52;5.53;;;4.47;;
22711;SDS011;11523;50.390;8.072;2023-05-07T07:38:18;8.13;;;4.97;;
22711;SDS011;11523;50.390;8.072;2023-05-07T07:40:47;5.22;;;4.18;;
22711;SDS011;11523;50.390;8.072;2023-05-07T07:43:13;10.40;;;6.50;;
22711;SDS011;11523;50.390;8.072;2023-05-07T07:45:39;5.85;;;4.70;;
22711;SDS011;11523;50.390;8.072;2023-05-07T07:48:05;5.03;;;3.97;;
22711;SDS011;11523;50.390;8.072;2023-05-07T07:50:31;4.75;;;4.35;;
22711;SDS011;11523;50.390;8.072;2023-05-07T07:52:57;9.95;;;5.20;;
22711;SDS011;11523;50.390;8.072;2023-05-07T07:55:23;5.97;;;4.90;;
22711;SDS011;11523;50.390;8.072;2023-05-07T07:57:49;4.63;;;4.22;;
22711;SDS011;11523;50.390;8.072;2023-05-07T08:00:15;6.88;;;4.68;;
22711;SDS011;11523;50.390;8.072;2023-05-07T08:02:41;6.43;;;4.75;;
22711;SDS011;11523;50.390;8.072;2023-05-07T08:05:07;5.07;;;4.57;;
22711;SDS011;11523;50.390;8.072;2023-05-07T08:07:33;4.72;;;4.30;;
22711;SDS011;11523;50.390;8.072;2023-05-07T08:09:59;6.07;;;4.53;;
22711;SDS011;11523;50.390;8.072;2023-05-07T08:12:25;5.10;;;4.40;;
22711;SDS011;11523;50.390;8.072;2023-05-07T08:14:51;4.90;;;4.50;;
22711;SDS011;11523;50.390;8.072;2023-05-07T08:17:17;7.45;;;4.95;;
22711;SDS011;11523;50.390;8.072;2023-05-07T08:19:43;4.95;;;4.50;;
22711;SDS011;11523;50.390;8.072;2023-05-07T08:22:09;5.57;;;4.97;;
22711;SDS011;11523;50.390;8.072;2023-05-07T08:24:35;4.88;;;4.47;;
22711;SDS011;11523;50.390;8.072;2023-05-07T08:27:01;6.38;;;4.93;;
22711;SDS011;11523;50.390;8.072;2023-05-07T08:29:27;5.25;;;4.75;;
22711;SDS011;11523;50.390;8.072;2023-05-07T08:31:53;5.45;;;4.75;;
22711;SDS011;11523;50.390;8.072;2023-05-07T08:34:20;8.95;;;5.47;;
22711;SDS011;11523;50.390;8.072;2023-05-07T08:36:46;5.43;;;4.93;;
22711;SDS011;11523;50.390;8.072;2023-05-07T08:39:13;6.90;;;5.18;;
22711;SDS011;11523;50.390;8.072;2023-05-07T08:41:39;5.60;;;5.03;;
22711;SDS011;11523;50.390;8.072;2023-05-07T08:44:06;5.25;;;4.75;;
22711;SDS011;11523;50.390;8.072;2023-05-07T08:46:37;6.18;;;5.18;;
22711;SDS011;11523;50.390;8.072;2023-05-07T08:49:03;7.85;;;4.85;;
22711;SDS011;11523;50.390;8.072;2023-05-07T08:51:29;5.68;;;5.13;;
22711;SDS011;11523;50.390;8.072;2023-05-07T08:53:56;6.45;;;4.93;;
22711;SDS011;11523;50.390;8.072;2023-05-07T08:56:22;5.57;;;4.97;;
22711;SDS011;11523;50.390;8.072;2023-05-07T08:58:48;6.40;;;5.25;;
22711;SDS011;11523;50.390;8.072;2023-05-07T09:01:14;5.70;;;4.93;;
22711;SDS011;11523;50.390;8.072;2023-05-07T09:03:42;5.25;;;4.80;;
22711;SDS011;11523;50.390;8.072;2023-05-07T09:06:10;6.30;;;5.63;;
22711;SDS011;11523;50.390;8.072;2023-05-07T09:08:36;5.90;;;5.40;;
22711;SDS011;11523;50.390;8.072;2023-05-07T09:11:02;6.72;;;5.50;;
22711;SDS011;11523;50.390;8.072;2023-05-07T09:13:28;7.82;;;6.10;;
22711;SDS011;11523;50.390;8.072;2023-05-07T09:15:54;7.53;;;6.28;;
22711;SDS011;11523;50.390;8.072;2023-05-07T09:18:20;6.80;;;6.10;;
22711;SDS011;11523;50.390;8.072;2023-05-07T09:20:46;6.90;;;6.20;;
22711;SDS011;11523;50.390;8.072;2023-05-07T09:23:12;6.35;;;5.85;;
22711;SDS011;11523;50.390;8.072;2023-05-07T09:25:38;7.40;;;6.40;;
22711;SDS011;11523;50.390;8.072;2023-05-07T09:28:04;7.00;;;6.30;;
22711;SDS011;11523;50.390;8.072;2023-05-07T09:30:35;6.80;;;6.13;;
22711;SDS011;11523;50.390;8.072;2023-05-07T09:33:02;7.13;;;6.45;;
22711;SDS011;11523;50.390;8.072;2023-05-07T09:35:28;8.98;;;6.45;;
22711;SDS011;11523;50.390;8.072;2023-05-07T09:37:57;8.50;;;6.75;;
22711;SDS011;11523;50.390;8.072;2023-05-07T09:40:28;8.07;;;7.28;;
22711;SDS011;11523;50.390;8.072;2023-05-07T09:42:54;8.10;;;7.25;;
22711;SDS011;11523;50.390;8.072;2023-05-07T09:45:29;7.57;;;6.85;;
22711;SDS011;11523;50.390;8.072;2023-05-07T09:48:02;8.80;;;6.75;;
22711;SDS011;11523;50.390;8.072;2023-05-07T09:52:56;7.70;;;6.90;;
22711;SDS011;11523;50.390;8.072;2023-05-07T09:55:22;9.27;;;6.35;;
22711;SDS011;11523;50.390;8.072;2023-05-07T09:57:52;7.43;;;6.57;;
22711;SDS011;11523;50.390;8.072;2023-05-07T10:00:18;8.48;;;7.03;;
22711;SDS011;11523;50.390;8.072;2023-05-07T10:02:45;7.72;;;6.75;;
22711;SDS011;11523;50.390;8.072;2023-05-07T10:05:14;8.48;;;7.60;;
22711;SDS011;11523;50.390;8.072;2023-05-07T10:07:40;7.45;;;6.75;;
22711;SDS011;11523;50.390;8.072;2023-05-07T10:10:06;7.38;;;6.70;;
22711;SDS011;11523;50.390;8.072;2023-05-07T10:12:32;7.70;;;5.97;;
22711;SDS011;11523;50.390;8.072;2023-05-07T10:15:05;7.05;;;5.10;;
22711;SDS011;11523;50.390;8.072;2023-05-07T10:17:31;6.75;;;5.97;;
22711;SDS011;11523;50.390;8.072;2023-05-07T10:19:57;7.68;;;6.47;;
22711;SDS011;11523;50.390;8.072;2023-05-07T10:22:23;7.95;;;6.13;;
22711;SDS011;11523;50.390;8.072;2023-05-07T10:24:51;7.05;;;6.18;;
22711;SDS011;11523;50.390;8.072;2023-05-07T10:27:19;6.63;;;5.70;;
22711;SDS011;11523;50.390;8.072;2023-05-07T10:29:56;8.32;;;5.50;;
22711;SDS011;11523;50.390;8.072;2023-05-07T10:32:33;6.95;;;5.72;;
22711;SDS011;11523;50.390;8.072;2023-05-07T10:35:02;5.90;;;5.40;;
22711;SDS011;11523;50.390;8.072;2023-05-07T10:40:02;6.05;;;5.43;;
22711;SDS011;11523;50.390;8.072;2023-05-07T10:42:28;5.35;;;4.90;;
22711;SDS011;11523;50.390;8.072;2023-05-07T10:44:54;7.03;;;4.88;;
22711;SDS011;11523;50.390;8.072;2023-05-07T10:47:20;6.78;;;5.28;;
22711;SDS011;11523;50.390;8.072;2023-05-07T10:54:44;4.78;;;4.38;;
22711;SDS011;11523;50.390;8.072;2023-05-07T11:02:21;6.50;;;4.90;;
22711;SDS011;11523;50.390;8.072;2023-05-07T11:10:01;6.72;;;6.10;;
22711;SDS011;11523;50.390;8.072;2023-05-07T11:17:31;5.82;;;5.32;;
22711;SDS011;11523;50.390;8.072;2023-05-07T11:19:59;5.30;;;4.80;;
22711;SDS011;11523;50.390;8.072;2023-05-07T11:25:05;5.57;;;5.07;;
22711;SDS011;11523;50.390;8.072;2023-05-07T11:27:31;6.05;;;5.30;;
22711;SDS011;11523;50.390;8.072;2023-05-07T11:29:57;8.18;;;6.18;;
22711;SDS011;11523;50.390;8.072;2023-05-07T11:32:27;5.88;;;5.28;;
22711;SDS011;11523;50.390;8.072;2023-05-07T11:34:57;6.68;;;6.00;;
22711;SDS011;11523;50.390;8.072;2023-05-07T11:37:23;9.57;;;6.25;;
22711;SDS011;11523;50.390;8.072;2023-05-07T11:39:50;5.95;;;5.45;;
22711;SDS011;11523;50.390;8.072;2023-05-07T11:42:33;5.80;;;5.30;;
22711;SDS011;11523;50.390;8.072;2023-05-07T11:44:59;5.72;;;4.57;;
22711;SDS011;11523;50.390;8.072;2023-05-07T11:47:25;6.85;;;4.80;;
22711;SDS011;11523;50.390;8.072;2023-05-07T11:49:53;5.70;;;5.03;;
22711;SDS011;11523;50.390;8.072;2023-05-07T11:52:20;5.47;;;5.07;;
22711;SDS011;11523;50.390;8.072;2023-05-07T11:54:54;6.57;;;4.47;;
22711;SDS011;11523;50.390;8.072;2023-05-07T11:57:21;7.95;;;4.30;;
22711;SDS011;11523;50.390;8.072;2023-05-07T11:59:47;6.18;;;4.57;;
22711;SDS011;11523;50.390;8.072;2023-05-07T12:02:17;5.35;;;4.38;;
22711;SDS011;11523;50.390;8.072;2023-05-07T12:04:43;6.35;;;4.82;;
22711;SDS011;11523;50.390;8.072;2023-05-07T12:07:12;5.43;;;4.93;;
22711;SDS011;11523;50.390;8.072;2023-05-07T12:09:39;5.63;;;5.03;;
22711;SDS011;11523;50.390;8.072;2023-05-07T12:12:05;5.40;;;4.80;;
22711;SDS011;11523;50.390;8.072;2023-05-07T12:14:31;5.25;;;4.85;;
22711;SDS011;11523;50.390;8.072;2023-05-07T12:16:57;6.22;;;4.85;;
22711;SDS011;11523;50.390;8.072;2023-05-07T12:19:23;5.25;;;4.85;;
22711;SDS011;11523;50.390;8.072;2023-05-07T12:21:49;5.15;;;4.75;;
22711;SDS011;11523;50.390;8.072;2023-05-07T12:24:15;6.43;;;4.93;;
22711;SDS011;11523;50.390;8.072;2023-05-07T12:26:41;6.13;;;4.55;;
22711;SDS011;11523;50.390;8.072;2023-05-07T12:29:08;5.05;;;4.30;;
22711;SDS011;11523;50.390;8.072;2023-05-07T12:31:34;3.90;;;3.58;;
22711;SDS011;11523;50.390;8.072;2023-05-07T12:34:00;7.90;;;4.10;;
22711;SDS011;11523;50.390;8.072;2023-05-07T12:36:26;6.25;;;4.00;;
22711;SDS011;11523;50.390;8.072;2023-05-07T12:39:01;4.43;;;3.95;;
22711;SDS011;11523;50.390;8.072;2023-05-07T12:41:28;5.40;;;4.45;;
22711;SDS011;11523;50.390;8.072;2023-05-07T12:43:56;7.43;;;4.18;;
22711;SDS011;11523;50.390;8.072;2023-05-07T12:46:22;5.57;;;4.22;;
22711;SDS011;11523;50.390;8.072;2023-05-07T12:48:48;4.88;;;4.38;;
22711;SDS011;11523;50.390;8.072;2023-05-07T12:51:15;4.40;;;4.00;;
22711;SDS011;11523;50.390;8.072;2023-05-07T12:53:41;4.57;;;4.18;;
22711;SDS011;11523;50.390;8.072;2023-05-07T12:56:08;4.75;;;4.35;;
22711;SDS011;11523;50.390;8.072;2023-05-07T12:58:34;4.43;;;4.03;;
22711;SDS011;11523;50.390;8.072;2023-05-07T13:01:03;4.50;;;3.80;;
22711;SDS011;11523;50.390;8.072;2023-05-07T13:03:30;5.32;;;4.13;;
22711;SDS011;11523;50.390;8.072;2023-05-07T13:06:03;4.78;;;3.80;;
22711;SDS011;11523;50.390;8.072;2023-05-07T13:10:57;4.20;;;3.90;;
22711;SDS011;11523;50.390;8.072;2023-05-07T13:13:23;5.05;;;3.78;;
22711;SDS011;11523;50.390;8.072;2023-05-07T13:15:49;4.00;;;3.70;;
22711;SDS011;11523;50.390;8.072;2023-05-07T13:18:15;3.95;;;3.65;;
22711;SDS011;11523;50.390;8.072;2023-05-07T13:20:41;4.63;;;4.22;;
22711;SDS011;11523;50.390;8.072;2023-05-07T13:23:07;4.45;;;4.05;;
22711;SDS011;11523;50.390;8.072;2023-05-07T13:25:32;4.15;;;3.85;;
22711;SDS011;11523;50.390;8.072;2023-05-07T13:27:58;4.25;;;3.85;;
22711;SDS011;11523;50.390;8.072;2023-05-07T13:30:24;4.60;;;4.18;;
22711;SDS011;11523;50.390;8.072;2023-05-07T13:32:50;4.15;;;3.75;;
22711;SDS011;11523;50.390;8.072;2023-05-07T13:35:17;4.30;;;3.90;;
22711;SDS011;11523;50.390;8.072;2023-05-07T13:37:43;4.03;;;3.60;;
22711;SDS011;11523;50.390;8.072;2023-05-07T13:40:09;3.80;;;3.50;;
22711;SDS011;11523;50.390;8.072;2023-05-07T13:42:35;3.88;;;3.47;;
22711;SDS011;11523;50.390;8.072;2023-05-07T13:45:01;6.55;;;3.90;;
22711;SDS011;11523;50.390;8.072;2023-05-07T13:47:30;4.38;;;4.00;;
22711;SDS011;11523;50.390;8.072;2023-05-07T13:49:56;4.45;;;3.63;;
22711;SDS011;11523;50.390;8.072;2023-05-07T13:52:22;4.00;;;3.60;;
22711;SDS011;11523;50.390;8.072;2023-05-07T13:54:48;3.65;;;3.33;;
22711;SDS011;11523;50.390;8.072;2023-05-07T13:57:14;3.78;;;3.47;;
22711;SDS011;11523;50.390;8.072;2023-05-07T13:59:40;3.83;;;3.30;;
22711;SDS011;11523;50.390;8.072;2023-05-07T14:02:06;3.42;;;3.13;;
22711;SDS011;11523;50.390;8.072;2023-05-07T14:04:33;4.18;;;3.20;;
22711;SDS011;11523;50.390;8.072;2023-05-07T14:06:59;3.67;;;3.25;;
22711;SDS011;11523;50.390;8.072;2023-05-07T14:09:25;3.47;;;2.92;;
22711;SDS011;11523;50.390;8.072;2023-05-07T14:11:51;3.95;;;3.20;;
22711;SDS011;11523;50.390;8.072;2023-05-07T14:14:18;3.75;;;3.45;;
22711;SDS011;11523;50.390;8.072;2023-05-07T14:16:44;3.28;;;2.97;;
22711;SDS011;11523;50.390;8.072;2023-05-07T14:19:10;3.83;;;2.88;;
22711;SDS011;11523;50.390;8.072;2023-05-07T14:21:36;3.20;;;2.90;;
22711;SDS011;11523;50.390;8.072;2023-05-07T14:24:02;3.35;;;3.05;;
22711;SDS011;11523;50.390;8.072;2023-05-07T14:26:28;3.40;;;3.10;;
22711;SDS011;11523;50.390;8.072;2023-05-07T14:28:55;3.45;;;3.15;;
22711;SDS011;11523;50.390;8.072;2023-05-07T14:31:23;3.10;;;2.80;;
22711;SDS011;11523;50.390;8.072;2023-05-07T14:33:49;3.58;;;2.90;;
22711;SDS011;11523;50.390;8.072;2023-05-07T14:36:15;3.10;;;2.90;;
22711;SDS011;11523;50.390;8.072;2023-05-07T14:38:41;2.90;;;2.70;;
22711;SDS011;11523;50.390;8.072;2023-05-07T14:41:07;3.70;;;2.60;;
22711;SDS011;11523;50.390;8.072;2023-05-07T14:43:33;5.05;;;2.70;;
22711;SDS011;11523;50.390;8.072;2023-05-07T14:45:59;3.08;;;2.78;;
22711;SDS011;11523;50.390;8.072;2023-05-07T14:48:25;3.63;;;2.47;;
22711;SDS011;11523;50.390;8.072;2023-05-07T14:50:51;3.30;;;2.45;;
22711;SDS011;11523;50.390;8.072;2023-05-07T14:53:17;2.90;;;2.70;;
22711;SDS011;11523;50.390;8.072;2023-05-07T14:55:43;3.20;;;2.75;;
22711;SDS011;11523;50.390;8.072;2023-05-07T14:58:10;2.60;;;2.40;;
22711;SDS011;11523;50.390;8.072;2023-05-07T15:00:36;2.60;;;2.40;;
22711;SDS011;11523;50.390;8.072;2023-05-07T15:03:09;4.80;;;2.80;;
22711;SDS011;11523;50.390;8.072;2023-05-07T15:05:35;4.75;;;2.33;;
22711;SDS011;11523;50.390;8.072;2023-05-07T15:08:02;2.42;;;2.22;;
22711;SDS011;11523;50.390;8.072;2023-05-07T15:10:28;2.50;;;2.30;;
22711;SDS011;11523;50.390;8.072;2023-05-07T15:12:54;5.07;;;2.30;;
22711;SDS011;11523;50.390;8.072;2023-05-07T15:15:20;3.13;;;2.38;;